Time;durP1;ratioP1;P1;durP2;ratioP2;P2;SDS_P1;SDS_P2;PMS_P1;PMS_P2;Temp;Humidity;BMP_temperature;BMP_pressure;BME280_temperature;BME280_humidity;BME280_pressure;Samples;Min_cycle;Max_cycle;Signal;HPM_P1;HPM_P2
2021/12/08 00:01:04;;;;;;;8.00;2.30;;;;;;;;;;4985411;28;20208;-62
2021/12/08 00:03:30;;;;;;;7.50;2.00;;;;;;;;;;4979875;28;20707;-62
2021/12/08 00:05:55;;;;;;;11.10;1.93;;;;;;;;;;4977388;28;20209;-62
2021/12/08 00:08:21;;;;;;;7.87;1.97;;;;;;;;;;4979476;28;20648;-62
2021/12/08 00:13:21;;;;;;;6.83;2.27;;;;;;;;;;4985345;28;20601;-62
2021/12/08 00:15:47;;;;;;;8.10;2.23;;;;;;;;;;4987009;28;20209;-62
2021/12/08 00:18:16;;;;;;;7.60;2.00;;;;;;;;;;4985064;28;20724;-62
2021/12/08 00:20:41;;;;;;;7.13;2.37;;;;;;;;;;4984949;28;20217;-62
2021/12/08 00:23:07;;;;;;;7.20;2.20;;;;;;;;;;4985024;28;20351;-63
2021/12/08 00:25:33;;;;;;;7.07;2.20;;;;;;;;;;4978251;28;20223;-62
2021/12/08 00:27:58;;;;;;;7.80;2.43;;;;;;;;;;4976796;28;20225;-62
2021/12/08 00:30:24;;;;;;;9.90;2.37;;;;;;;;;;4978146;28;20211;-62
2021/12/08 00:32:51;;;;;;;6.37;2.07;;;;;;;;;;4985542;28;20212;-62
2021/12/08 00:35:16;;;;;;;5.93;2.40;;;;;;;;;;4986185;28;20209;-62
2021/12/08 00:37:42;;;;;;;9.10;2.80;;;;;;;;;;4986703;28;20544;-62
2021/12/08 00:40:08;;;;;;;7.93;2.63;;;;;;;;;;4986222;28;20284;-62
2021/12/08 00:42:34;;;;;;;6.93;2.37;;;;;;;;;;4985912;28;20243;-62
2021/12/08 00:44:59;;;;;;;6.17;2.60;;;;;;;;;;4986826;28;20205;-62
2021/12/08 00:47:25;;;;;;;8.23;2.73;;;;;;;;;;4980540;28;20225;-62
2021/12/08 00:49:50;;;;;;;5.80;2.50;;;;;;;;;;4990286;28;20819;-62
2021/12/08 00:52:15;;;;;;;10.10;2.97;;;;;;;;;;4979941;28;20205;-62
2021/12/08 00:54:41;;;;;;;7.07;2.40;;;;;;;;;;5002901;28;20310;-62
2021/12/08 00:57:07;;;;;;;10.07;2.87;;;;;;;;;;4989173;28;20267;-62
2021/12/08 00:59:32;;;;;;;6.73;2.50;;;;;;;;;;4988806;28;20227;-62
2021/12/08 01:02:02;;;;;;;7.93;2.60;;;;;;;;;;4987305;28;20212;-62
2021/12/08 01:04:28;;;;;;;6.50;2.57;;;;;;;;;;4987365;28;21243;-62
2021/12/08 01:06:53;;;;;;;6.73;2.67;;;;;;;;;;4984903;28;20299;-62
2021/12/08 01:09:18;;;;;;;6.60;2.70;;;;;;;;;;4982465;28;20213;-62
2021/12/08 01:11:44;;;;;;;6.47;2.50;;;;;;;;;;4978606;28;20252;-62
2021/12/08 01:14:09;;;;;;;8.57;2.60;;;;;;;;;;4981433;28;20493;-62
2021/12/08 01:16:34;;;;;;;7.67;3.20;;;;;;;;;;4985216;28;20684;-62
2021/12/08 01:18:59;;;;;;;7.43;3.20;;;;;;;;;;4990066;28;20704;-62
2021/12/08 01:21:25;;;;;;;6.13;2.53;;;;;;;;;;4988843;28;20217;-62
2021/12/08 01:23:50;;;;;;;8.70;2.97;;;;;;;;;;4973419;28;21140;-62
2021/12/08 01:26:15;;;;;;;8.30;2.80;;;;;;;;;;4988310;28;20282;-62
2021/12/08 01:28:41;;;;;;;8.07;3.60;;;;;;;;;;4971918;28;20249;-62
2021/12/08 01:31:06;;;;;;;7.97;3.17;;;;;;;;;;4987830;28;20243;-62
2021/12/08 01:33:33;;;;;;;7.57;3.20;;;;;;;;;;4982409;28;20209;-62
2021/12/08 01:35:58;;;;;;;9.87;3.43;;;;;;;;;;4981158;28;20223;-62
2021/12/08 01:38:24;;;;;;;7.30;3.13;;;;;;;;;;4982554;28;20627;-62
2021/12/08 01:40:49;;;;;;;5.67;2.70;;;;;;;;;;4990879;28;21275;-62
2021/12/08 01:43:41;;;;;;;7.70;3.00;;;;;;;;;;4987556;28;20582;-61
2021/12/08 01:46:07;;;;;;;8.50;3.23;;;;;;;;;;4988424;28;20217;-62
2021/12/08 01:48:33;;;;;;;5.80;2.77;;;;;;;;;;4971937;28;20776;-62
2021/12/08 01:51:00;;;;;;;7.07;2.93;;;;;;;;;;4971284;28;20300;-62
2021/12/08 01:53:25;;;;;;;5.90;2.57;;;;;;;;;;4971624;28;20570;-62
2021/12/08 01:55:50;;;;;;;7.10;2.60;;;;;;;;;;4981897;28;20736;-62
2021/12/08 01:58:16;;;;;;;8.23;3.20;;;;;;;;;;4979366;28;20687;-62
2021/12/08 02:00:42;;;;;;;5.70;2.97;;;;;;;;;;4981113;28;20212;-62
2021/12/08 02:03:08;;;;;;;10.30;3.10;;;;;;;;;;4972078;28;20216;-62
2021/12/08 02:05:33;;;;;;;8.70;3.23;;;;;;;;;;4972024;28;20225;-62
2021/12/08 02:07:58;;;;;;;6.07;2.90;;;;;;;;;;4989164;28;20228;-62
2021/12/08 02:10:24;;;;;;;6.63;3.50;;;;;;;;;;4974140;28;20692;-62
2021/12/08 02:12:49;;;;;;;6.30;3.00;;;;;;;;;;4988872;28;20295;-62
2021/12/08 02:15:16;;;;;;;6.60;2.67;;;;;;;;;;4972078;28;20209;-62
2021/12/08 02:17:41;;;;;;;8.70;3.07;;;;;;;;;;4981878;28;20232;-62
2021/12/08 02:20:07;;;;;;;7.63;2.90;;;;;;;;;;4980687;28;20244;-62
2021/12/08 02:22:32;;;;;;;7.10;2.80;;;;;;;;;;4980041;28;20221;-62
2021/12/08 02:24:57;;;;;;;5.90;2.87;;;;;;;;;;4985642;28;20296;-62
2021/12/08 02:27:23;;;;;;;7.10;2.87;;;;;;;;;;4987360;28;20690;-62
2021/12/08 02:29:55;;;;;;;5.97;2.60;;;;;;;;;;4988400;28;20316;-62
2021/12/08 02:48:26;;;;;;;5.93;2.30;;;;;;;;;;5006839;28;21146;-63
2021/12/08 02:50:52;;;;;;;5.23;2.17;;;;;;;;;;4991626;28;20213;-62
2021/12/08 02:53:17;;;;;;;4.70;2.20;;;;;;;;;;4989365;28;20622;-62
2021/12/08 02:55:42;;;;;;;6.07;2.47;;;;;;;;;;5008339;28;20204;-62
2021/12/08 02:58:08;;;;;;;4.53;2.20;;;;;;;;;;5006752;28;20622;-62
2021/12/08 03:00:35;;;;;;;5.83;2.40;;;;;;;;;;5006694;28;20209;-62
2021/12/08 03:03:00;;;;;;;4.87;2.17;;;;;;;;;;4999692;28;20215;-62
2021/12/08 03:05:25;;;;;;;6.60;2.43;;;;;;;;;;4998536;28;20212;-62
2021/12/08 03:07:51;;;;;;;6.50;2.10;;;;;;;;;;4998271;28;20635;-62
2021/12/08 03:10:17;;;;;;;7.07;2.37;;;;;;;;;;4991086;28;20203;-62
2021/12/08 03:12:42;;;;;;;3.90;1.60;;;;;;;;;;4989435;28;20516;-62
2021/12/08 03:15:08;;;;;;;4.13;1.83;;;;;;;;;;5005755;28;20231;-63
2021/12/08 03:17:34;;;;;;;7.03;2.63;;;;;;;;;;5008037;28;20212;-62
2021/12/08 03:20:00;;;;;;;5.53;1.80;;;;;;;;;;5007159;28;20236;-62
2021/12/08 03:22:25;;;;;;;4.80;1.90;;;;;;;;;;4990795;28;20224;-62
2021/12/08 03:24:52;;;;;;;4.73;2.03;;;;;;;;;;5002017;28;20631;-62
2021/12/08 03:27:22;;;;;;;4.87;1.77;;;;;;;;;;4998518;28;20689;-62
2021/12/08 03:29:55;;;;;;;4.00;1.90;;;;;;;;;;4997905;28;20215;-62
2021/12/08 03:32:29;;;;;;;4.83;1.80;;;;;;;;;;4988868;28;20220;-62
2021/12/08 03:34:54;;;;;;;6.03;2.33;;;;;;;;;;4990562;28;20236;-62
2021/12/08 03:37:20;;;;;;;3.90;2.23;;;;;;;;;;4989133;28;20270;-62
2021/12/08 03:39:45;;;;;;;5.90;1.83;;;;;;;;;;5006280;28;20208;-62
2021/12/08 03:42:10;;;;;;;6.97;1.80;;;;;;;;;;5005492;28;20251;-62
2021/12/08 03:44:36;;;;;;;4.03;1.93;;;;;;;;;;4989178;28;20683;-62
2021/12/08 03:47:02;;;;;;;5.73;1.97;;;;;;;;;;5001600;28;20322;-62
2021/12/08 03:49:28;;;;;;;5.10;1.97;;;;;;;;;;4981378;28;20943;-62
2021/12/08 03:51:56;;;;;;;6.03;2.10;;;;;;;;;;4981641;28;20210;-62
2021/12/08 03:54:21;;;;;;;8.50;2.17;;;;;;;;;;4985506;28;20220;-62
2021/12/08 03:56:46;;;;;;;5.20;1.83;;;;;;;;;;5006517;28;20215;-62
2021/12/08 03:59:12;;;;;;;6.47;2.57;;;;;;;;;;5006011;28;20280;-63
2021/12/08 04:01:37;;;;;;;8.20;2.60;;;;;;;;;;5006650;28;20251;-62
2021/12/08 04:04:06;;;;;;;6.93;2.10;;;;;;;;;;4987670;28;20209;-62
2021/12/08 04:06:39;;;;;;;8.57;2.60;;;;;;;;;;5024587;28;20226;-62
2021/12/08 04:09:12;;;;;;;7.20;2.50;;;;;;;;;;5021259;28;20294;-62
2021/12/08 04:11:38;;;;;;;5.03;2.03;;;;;;;;;;4998265;28;20286;-62
2021/12/08 04:14:04;;;;;;;6.87;1.87;;;;;;;;;;5008951;28;20355;-62
2021/12/08 04:16:32;;;;;;;6.67;1.73;;;;;;;;;;5001880;28;20200;-62
2021/12/08 04:18:57;;;;;;;5.53;1.80;;;;;;;;;;5024160;28;20211;-62
2021/12/08 04:21:23;;;;;;;6.30;2.30;;;;;;;;;;5018988;28;20215;-62
2021/12/08 04:23:48;;;;;;;5.73;1.67;;;;;;;;;;5004763;28;20223;-62
2021/12/08 04:26:16;;;;;;;6.07;2.10;;;;;;;;;;5004525;28;20299;-62
2021/12/08 04:28:41;;;;;;;7.00;2.53;;;;;;;;;;5006322;28;20583;-62
2021/12/08 04:31:10;;;;;;;6.30;2.20;;;;;;;;;;5021557;28;20326;-62
2021/12/08 04:33:36;;;;;;;7.87;2.10;;;;;;;;;;4998522;28;20579;-62
2021/12/08 04:36:02;;;;;;;6.33;2.00;;;;;;;;;;4978681;28;20227;-62
2021/12/08 04:38:32;;;;;;;7.93;2.40;;;;;;;;;;5015991;28;20220;-62
2021/12/08 04:41:07;;;;;;;11.17;3.47;;;;;;;;;;5024471;28;20248;-62
2021/12/08 04:43:40;;;;;;;9.43;3.83;;;;;;;;;;5024250;28;20607;-62
2021/12/08 04:46:43;;;;;;;12.10;4.87;;;;;;;;;;5006266;28;20222;-62
2021/12/08 04:49:30;;;;;;;16.60;5.60;;;;;;;;;;5027845;28;20235;-62
2021/12/08 04:52:06;;;;;;;12.43;4.90;;;;;;;;;;5027606;28;20698;-62
2021/12/08 05:00:40;;;;;;;8.23;2.10;;;;;;;;;;5017187;28;20219;-63
2021/12/08 05:06:03;;;;;;;7.47;1.57;;;;;;;;;;5028135;28;20288;-62
2021/12/08 05:08:40;;;;;;;7.27;1.83;;;;;;;;;;5027598;28;20223;-62
2021/12/08 05:11:05;;;;;;;5.23;1.50;;;;;;;;;;5012586;28;20597;-62
2021/12/08 05:13:31;;;;;;;6.83;2.10;;;;;;;;;;5006752;28;20664;-62
2021/12/08 05:15:56;;;;;;;13.03;4.60;;;;;;;;;;5026526;28;20373;-62
2021/12/08 05:18:23;;;;;;;17.27;6.60;;;;;;;;;;4998395;28;20273;-62
2021/12/08 05:20:50;;;;;;;16.20;4.63;;;;;;;;;;5018388;28;20247;-62
2021/12/08 05:23:29;;;;;;;12.43;4.27;;;;;;;;;;5019903;28;20269;-62
2021/12/08 05:25:54;;;;;;;8.73;3.30;;;;;;;;;;5010320;28;20219;-62
2021/12/08 05:28:20;;;;;;;7.10;2.00;;;;;;;;;;5009044;28;20278;-62
2021/12/08 05:30:47;;;;;;;5.87;1.63;;;;;;;;;;5027671;28;20238;-62
2021/12/08 05:33:12;;;;;;;4.40;1.70;;;;;;;;;;5026927;28;20211;-62
2021/12/08 05:35:38;;;;;;;6.20;1.77;;;;;;;;;;5009409;28;20270;-62
2021/12/08 05:38:03;;;;;;;6.43;1.77;;;;;;;;;;5021494;28;20616;-62
2021/12/08 05:40:31;;;;;;;5.83;1.60;;;;;;;;;;4986048;28;20208;-62
2021/12/08 05:42:57;;;;;;;7.67;1.77;;;;;;;;;;4983852;28;20271;-62
2021/12/08 05:45:22;;;;;;;8.37;1.70;;;;;;;;;;4983236;28;20946;-62
2021/12/08 05:47:48;;;;;;;8.10;1.60;;;;;;;;;;5008975;28;20216;-62
2021/12/08 05:50:16;;;;;;;6.50;1.60;;;;;;;;;;4991574;28;20224;-62
2021/12/08 05:52:42;;;;;;;6.63;1.57;;;;;;;;;;4992096;28;20670;-62
2021/12/08 05:55:08;;;;;;;7.77;1.57;;;;;;;;;;5009285;28;20212;-62
2021/12/08 05:57:34;;;;;;;7.23;1.43;;;;;;;;;;4990242;28;20212;-62
2021/12/08 06:00:00;;;;;;;7.93;1.60;;;;;;;;;;5009112;28;20224;-62
2021/12/08 06:02:28;;;;;;;8.23;1.50;;;;;;;;;;4984379;28;20259;-62
2021/12/08 06:04:53;;;;;;;8.93;2.28;;;;;;;;;;4983927;28;20762;-62
2021/12/08 06:07:22;;;;;;;6.77;1.83;;;;;;;;;;4982553;28;20224;-62
2021/12/08 06:09:48;;;;;;;7.13;2.10;;;;;;;;;;5006365;28;20215;-62
2021/12/08 06:12:13;;;;;;;7.90;1.80;;;;;;;;;;5007536;28;20205;-62
2021/12/08 06:14:39;;;;;;;6.40;2.07;;;;;;;;;;5009356;28;20204;-62
2021/12/08 06:17:06;;;;;;;10.80;2.63;;;;;;;;;;5023196;28;20215;-62
2021/12/08 06:19:32;;;;;;;12.77;1.70;;;;;;;;;;5034803;28;20215;-61
2021/12/08 06:21:57;;;;;;;6.97;1.60;;;;;;;;;;5023485;28;20450;-61
2021/12/08 06:24:22;;;;;;;7.73;2.03;;;;;;;;;;5012580;28;20410;-59
2021/12/08 06:26:48;;;;;;;6.57;1.30;;;;;;;;;;5017420;28;20211;-60
2021/12/08 06:29:15;;;;;;;7.83;1.80;;;;;;;;;;5014994;28;20504;-61
2021/12/08 06:31:40;;;;;;;7.23;1.20;;;;;;;;;;5033715;28;20212;-60
2021/12/08 06:34:06;;;;;;;5.53;1.33;;;;;;;;;;5033548;28;20215;-61
2021/12/08 06:36:35;;;;;;;9.23;1.80;;;;;;;;;;5034004;28;20306;-60
2021/12/08 06:39:00;;;;;;;8.93;1.67;;;;;;;;;;5033144;28;20580;-61
2021/12/08 06:41:28;;;;;;;11.10;1.70;;;;;;;;;;5025581;28;20215;-61
2021/12/08 06:43:55;;;;;;;9.80;2.60;;;;;;;;;;5034047;28;20295;-61
2021/12/08 06:46:21;;;;;;;10.67;3.60;;;;;;;;;;5031685;28;20219;-60
2021/12/08 06:48:47;;;;;;;11.47;3.90;;;;;;;;;;5033351;28;20261;-61
2021/12/08 06:51:14;;;;;;;7.93;2.80;;;;;;;;;;5033477;28;20208;-60
2021/12/08 06:53:39;;;;;;;12.77;2.87;;;;;;;;;;5032267;28;20223;-59
2021/12/08 06:56:06;;;;;;;12.93;3.90;;;;;;;;;;5030344;28;20204;-60
2021/12/08 06:58:32;;;;;;;14.80;3.70;;;;;;;;;;5013091;28;20306;-60
2021/12/08 07:03:44;;;;;;;12.73;3.17;;;;;;;;;;5013390;28;20227;-61
2021/12/08 07:06:18;;;;;;;12.70;2.90;;;;;;;;;;5001004;28;20565;-61
2021/12/08 07:08:47;;;;;;;10.53;1.83;;;;;;;;;;5021338;28;20222;-61
2021/12/08 07:11:12;;;;;;;8.47;2.10;;;;;;;;;;5023344;28;20679;-62
2021/12/08 07:13:38;;;;;;;11.57;2.27;;;;;;;;;;5015416;28;20211;-61
2021/12/08 07:16:08;;;;;;;10.87;1.80;;;;;;;;;;5015832;28;20212;-62
2021/12/08 07:18:37;;;;;;;12.90;2.53;;;;;;;;;;5017144;28;20626;-61
2021/12/08 07:21:03;;;;;;;11.13;2.50;;;;;;;;;;5031818;28;20231;-62
2021/12/08 07:23:35;;;;;;;10.80;2.80;;;;;;;;;;5011959;28;20242;-61
2021/12/08 07:26:01;;;;;;;15.67;3.80;;;;;;;;;;5028707;28;20209;-61
2021/12/08 07:28:26;;;;;;;13.43;2.80;;;;;;;;;;5032166;28;20633;-61
2021/12/08 07:30:54;;;;;;;12.90;2.30;;;;;;;;;;5032999;28;20218;-60
2021/12/08 07:33:20;;;;;;;12.17;2.10;;;;;;;;;;5027970;28;20258;-60
2021/12/08 07:35:46;;;;;;;10.63;2.07;;;;;;;;;;5024238;28;20692;-60
2021/12/08 07:38:13;;;;;;;10.70;1.90;;;;;;;;;;5022719;28;20619;-61
2021/12/08 07:40:41;;;;;;;9.30;2.10;;;;;;;;;;5052547;28;20215;-60
2021/12/08 07:43:08;;;;;;;10.93;2.10;;;;;;;;;;5035643;28;20299;-60
2021/12/08 07:45:36;;;;;;;10.93;2.43;;;;;;;;;;5032771;28;20203;-60
2021/12/08 07:48:01;;;;;;;12.73;3.10;;;;;;;;;;4996908;28;20278;-61
2021/12/08 07:50:31;;;;;;;14.77;4.63;;;;;;;;;;5030911;28;20632;-60
2021/12/08 07:52:56;;;;;;;16.40;4.80;;;;;;;;;;5029083;28;20219;-61
2021/12/08 07:55:23;;;;;;;12.87;3.53;;;;;;;;;;5031384;28;20212;-60
2021/12/08 07:57:49;;;;;;;10.47;2.90;;;;;;;;;;5012626;28;20208;-61
2021/12/08 08:00:16;;;;;;;11.70;3.33;;;;;;;;;;5032163;28;20257;-60
2021/12/08 08:02:42;;;;;;;14.23;3.50;;;;;;;;;;5029962;28;20764;-61
2021/12/08 08:05:09;;;;;;;12.90;3.70;;;;;;;;;;5012018;28;20318;-61
2021/12/08 08:07:34;;;;;;;18.40;5.20;;;;;;;;;;5032350;28;20235;-60
2021/12/08 08:10:01;;;;;;;15.43;4.60;;;;;;;;;;5031431;28;20212;-61
2021/12/08 08:12:29;;;;;;;16.33;4.07;;;;;;;;;;5012419;28;20852;-60
2021/12/08 08:14:56;;;;;;;14.73;3.40;;;;;;;;;;5019928;28;20216;-61
2021/12/08 08:17:28;;;;;;;10.27;3.13;;;;;;;;;;5013810;28;20207;-61
2021/12/08 08:19:53;;;;;;;10.07;2.37;;;;;;;;;;5031969;28;20226;-61
2021/12/08 08:22:21;;;;;;;9.83;2.17;;;;;;;;;;5019117;28;20208;-61
2021/12/08 08:24:46;;;;;;;9.77;2.20;;;;;;;;;;4994163;28;20259;-61
2021/12/08 08:27:12;;;;;;;9.33;2.00;;;;;;;;;;5015233;28;20704;-61
2021/12/08 08:29:37;;;;;;;12.17;2.23;;;;;;;;;;5012665;28;20232;-61
2021/12/08 08:32:05;;;;;;;11.13;2.83;;;;;;;;;;4994035;28;20213;-61
2021/12/08 08:34:34;;;;;;;11.23;2.67;;;;;;;;;;5012310;28;20220;-61
2021/12/08 08:36:59;;;;;;;14.17;3.07;;;;;;;;;;5011572;28;20687;-61
2021/12/08 08:39:27;;;;;;;11.20;3.20;;;;;;;;;;4994614;28;20217;-60
2021/12/08 08:41:55;;;;;;;10.17;2.17;;;;;;;;;;4994788;28;20212;-60
2021/12/08 08:44:25;;;;;;;11.53;2.60;;;;;;;;;;5011297;28;20536;-61
2021/12/08 08:46:51;;;;;;;8.20;2.00;;;;;;;;;;4994947;28;20220;-61
2021/12/08 08:49:18;;;;;;;13.67;3.57;;;;;;;;;;5011389;28;20240;-61
2021/12/08 08:51:45;;;;;;;11.67;2.67;;;;;;;;;;5011590;28;20223;-61
2021/12/08 08:54:13;;;;;;;11.77;2.60;;;;;;;;;;5011925;28;20575;-61
2021/12/08 08:56:40;;;;;;;8.10;2.23;;;;;;;;;;5012683;28;20279;-61
2021/12/08 08:59:08;;;;;;;10.20;2.30;;;;;;;;;;5010961;28;20286;-61
2021/12/08 09:01:35;;;;;;;9.20;2.00;;;;;;;;;;5012241;28;20216;-61
2021/12/08 09:04:01;;;;;;;10.43;1.97;;;;;;;;;;5011808;28;20576;-61
2021/12/08 09:06:28;;;;;;;9.77;2.10;;;;;;;;;;4993504;28;20266;-61
2021/12/08 09:08:54;;;;;;;10.50;2.10;;;;;;;;;;5012199;28;20260;-61
2021/12/08 09:11:24;;;;;;;10.53;2.37;;;;;;;;;;4994004;28;20220;-61
2021/12/08 09:13:54;;;;;;;9.20;1.70;;;;;;;;;;5016962;28;20298;-61
2021/12/08 09:16:22;;;;;;;8.60;1.70;;;;;;;;;;5031326;28;20258;-61
2021/12/08 09:18:54;;;;;;;9.70;1.93;;;;;;;;;;5014025;28;20254;-60
2021/12/08 09:21:21;;;;;;;6.83;2.27;;;;;;;;;;5025524;28;20216;-60
2021/12/08 09:23:46;;;;;;;8.60;1.57;;;;;;;;;;5012259;28;20692;-61
2021/12/08 09:26:12;;;;;;;8.57;1.67;;;;;;;;;;5012256;28;20216;-61
2021/12/08 09:28:41;;;;;;;10.30;2.00;;;;;;;;;;5014223;28;20285;-61
2021/12/08 09:31:10;;;;;;;11.00;1.80;;;;;;;;;;5013973;28;20257;-61
2021/12/08 09:33:39;;;;;;;8.50;1.80;;;;;;;;;;5032940;28;20683;-61
2021/12/08 09:36:10;;;;;;;9.07;2.30;;;;;;;;;;5017687;28;20223;-61
2021/12/08 09:38:37;;;;;;;8.37;2.40;;;;;;;;;;5033986;28;20212;-61
2021/12/08 09:41:05;;;;;;;9.37;2.70;;;;;;;;;;5016138;28;20215;-61
2021/12/08 09:43:33;;;;;;;9.73;3.30;;;;;;;;;;5017746;28;20215;-61
2021/12/08 09:46:00;;;;;;;13.10;2.97;;;;;;;;;;5035176;28;20306;-61
2021/12/08 09:48:29;;;;;;;11.23;2.93;;;;;;;;;;5033409;28;20730;-61
2021/12/08 09:50:55;;;;;;;8.37;2.63;;;;;;;;;;5015168;28;20236;-61
2021/12/08 09:53:20;;;;;;;8.57;3.13;;;;;;;;;;5013508;28;20209;-61
2021/12/08 09:55:45;;;;;;;10.23;2.43;;;;;;;;;;5013085;28;20707;-61
2021/12/08 09:58:10;;;;;;;10.37;2.43;;;;;;;;;;5013405;28;20212;-61
2021/12/08 10:00:38;;;;;;;9.37;3.40;;;;;;;;;;5015192;28;20213;-61
2021/12/08 10:03:05;;;;;;;10.47;1.97;;;;;;;;;;5012807;28;20212;-61
2021/12/08 10:05:30;;;;;;;10.03;2.20;;;;;;;;;;5015214;28;20303;-61
2021/12/08 10:07:57;;;;;;;40.10;17.83;;;;;;;;;;5014782;28;20303;-61
2021/12/08 10:10:23;;;;;;;18.63;5.93;;;;;;;;;;5012376;28;20612;-61
2021/12/08 10:12:48;;;;;;;12.40;2.70;;;;;;;;;;5014835;28;20308;-61
2021/12/08 10:15:15;;;;;;;15.85;4.68;;;;;;;;;;5026992;28;20212;-61
2021/12/08 10:17:41;;;;;;;11.18;3.25;;;;;;;;;;5012784;28;20220;-61
2021/12/08 10:20:06;;;;;;;10.67;3.13;;;;;;;;;;5014617;28;20583;-61
2021/12/08 10:22:31;;;;;;;14.60;3.97;;;;;;;;;;5013490;28;20271;-61
2021/12/08 10:25:02;;;;;;;13.40;5.25;;;;;;;;;;5013577;28;20209;-61
2021/12/08 10:27:27;;;;;;;9.93;2.60;;;;;;;;;;5010747;28;20244;-61
2021/12/08 10:29:53;;;;;;;9.57;2.60;;;;;;;;;;5014023;28;20212;-61
2021/12/08 10:32:18;;;;;;;7.47;2.33;;;;;;;;;;5014103;28;20569;-61
2021/12/08 10:34:53;;;;;;;10.53;2.57;;;;;;;;;;5014941;28;20224;-61
2021/12/08 10:37:19;;;;;;;11.75;2.65;;;;;;;;;;5013245;28;20239;-61
2021/12/08 10:39:46;;;;;;;6.95;2.17;;;;;;;;;;5013448;28;20335;-62
2021/12/08 10:42:13;;;;;;;6.90;1.88;;;;;;;;;;5012253;28;20213;-61
2021/12/08 10:44:50;;;;;;;8.88;2.50;;;;;;;;;;5011438;28;20233;-61
2021/12/08 10:47:17;;;;;;;6.53;2.25;;;;;;;;;;5013692;28;20232;-61
2021/12/08 10:54:52;;;;;;;9.50;3.00;;;;;;;;;;5033839;28;20277;-61
2021/12/08 10:57:20;;;;;;;6.13;1.67;;;;;;;;;;5033078;28;20219;-61
2021/12/08 11:00:06;;;;;;;7.43;1.90;;;;;;;;;;5033170;28;20212;-61
2021/12/08 11:02:37;;;;;;;6.80;1.60;;;;;;;;;;5033178;28;20219;-61
2021/12/08 11:05:03;;;;;;;6.47;1.52;;;;;;;;;;5015069;28;20243;-61
2021/12/08 11:07:29;;;;;;;8.15;1.38;;;;;;;;;;5033400;28;20691;-61
2021/12/08 11:09:55;;;;;;;4.93;1.20;;;;;;;;;;5033616;28;20215;-61
2021/12/08 11:12:21;;;;;;;9.73;1.65;;;;;;;;;;5031938;28;20223;-61
2021/12/08 11:14:47;;;;;;;7.68;1.40;;;;;;;;;;5002744;28;20212;-61
2021/12/08 11:17:28;;;;;;;9.25;1.50;;;;;;;;;;4995646;28;20213;-61
2021/12/08 11:20:12;;;;;;;7.68;1.40;;;;;;;;;;4995567;28;20216;-61
2021/12/08 11:22:37;;;;;;;5.90;1.33;;;;;;;;;;5008663;28;20261;-61
2021/12/08 11:25:03;;;;;;;7.90;1.70;;;;;;;;;;5013348;28;20239;-62
2021/12/08 11:27:29;;;;;;;7.70;1.70;;;;;;;;;;5009391;28;20274;-61
2021/12/08 11:29:54;;;;;;;9.57;1.73;;;;;;;;;;5013746;28;20275;-61
2021/12/08 11:32:22;;;;;;;8.38;2.38;;;;;;;;;;5012952;28;20229;-61
2021/12/08 11:34:48;;;;;;;8.05;1.48;;;;;;;;;;4995614;28;20221;-61
2021/12/08 11:37:14;;;;;;;11.13;2.13;;;;;;;;;;5013045;28;20228;-61
2021/12/08 11:39:41;;;;;;;9.02;1.45;;;;;;;;;;4995658;28;20636;-61
2021/12/08 11:42:06;;;;;;;7.72;1.77;;;;;;;;;;4994427;28;20231;-61
2021/12/08 11:44:32;;;;;;;9.75;1.80;;;;;;;;;;5013086;28;20208;-61
2021/12/08 11:46:59;;;;;;;11.40;1.80;;;;;;;;;;5012383;28;20216;-61
2021/12/08 11:49:24;;;;;;;6.85;1.77;;;;;;;;;;5012274;28;20646;-61
2021/12/08 11:51:52;;;;;;;9.23;1.60;;;;;;;;;;4995677;28;20243;-61
2021/12/08 11:54:24;;;;;;;6.55;1.40;;;;;;;;;;5011759;28;20212;-61
2021/12/08 11:56:49;;;;;;;5.53;1.58;;;;;;;;;;4995445;28;20698;-61
2021/12/08 11:59:15;;;;;;;7.78;1.45;;;;;;;;;;4994494;28;20240;-61
2021/12/08 12:01:40;;;;;;;8.57;1.60;;;;;;;;;;4994651;28;20634;-61
2021/12/08 12:04:06;;;;;;;8.05;1.60;;;;;;;;;;5012419;28;20212;-61
2021/12/08 12:06:32;;;;;;;7.75;1.77;;;;;;;;;;4995448;28;20216;-61
2021/12/08 12:08:58;;;;;;;5.72;1.90;;;;;;;;;;5011999;28;20232;-61
2021/12/08 12:11:24;;;;;;;8.23;1.60;;;;;;;;;;5012177;28;20212;-61
2021/12/08 12:13:49;;;;;;;4.80;1.80;;;;;;;;;;5017986;28;20204;-61
2021/12/08 12:16:15;;;;;;;8.75;1.70;;;;;;;;;;5031249;28;20211;-61
2021/12/08 12:18:40;;;;;;;7.00;1.73;;;;;;;;;;5032452;28;20690;-61
2021/12/08 12:21:13;;;;;;;7.47;1.80;;;;;;;;;;5029115;28;20239;-61
2021/12/08 12:23:57;;;;;;;7.78;1.52;;;;;;;;;;5011795;28;20266;-61
2021/12/08 12:26:29;;;;;;;7.95;1.77;;;;;;;;;;4997307;28;20207;-61
2021/12/08 12:28:58;;;;;;;8.18;1.83;;;;;;;;;;5014537;28;20273;-61
2021/12/08 12:31:30;;;;;;;5.07;1.48;;;;;;;;;;5031027;28;20655;-61
2021/12/08 12:33:56;;;;;;;6.75;1.80;;;;;;;;;;5032224;28;20236;-61
2021/12/08 12:36:24;;;;;;;9.10;2.08;;;;;;;;;;5029611;28;20550;-61
2021/12/08 12:38:49;;;;;;;5.25;1.50;;;;;;;;;;5013830;28;20212;-61
2021/12/08 12:41:23;;;;;;;8.95;1.85;;;;;;;;;;5025329;28;20212;-61
2021/12/08 12:43:50;;;;;;;6.38;1.92;;;;;;;;;;5008622;28;20216;-80
2021/12/08 12:46:16;;;;;;;8.87;1.50;;;;;;;;;;5002734;28;20208;-69
2021/12/08 12:48:42;;;;;;;11.82;1.90;;;;;;;;;;5022194;28;20243;-76
2021/12/08 12:51:07;;;;;;;5.50;1.48;;;;;;;;;;5010116;28;20269;-67
2021/12/08 12:53:41;;;;;;;6.55;1.35;;;;;;;;;;5032156;28;20219;-70
2021/12/08 12:56:08;;;;;;;5.43;1.73;;;;;;;;;;5013741;28;20220;-69
2021/12/08 12:58:39;;;;;;;5.00;1.60;;;;;;;;;;5006356;28;20224;-68
2021/12/08 13:01:08;;;;;;;6.77;1.40;;;;;;;;;;5003233;28;20220;-60
2021/12/08 13:03:43;;;;;;;6.00;1.53;;;;;;;;;;5007070;28;20247;-59
2021/12/08 13:06:09;;;;;;;5.50;1.77;;;;;;;;;;5016011;28;20211;-59
2021/12/08 13:08:36;;;;;;;4.53;1.47;;;;;;;;;;5008851;28;20282;-59
2021/12/08 13:11:10;;;;;;;5.78;1.40;;;;;;;;;;5027286;28;20629;-60
2021/12/08 13:13:46;;;;;;;9.03;1.83;;;;;;;;;;5013401;28;20580;-82
2021/12/08 13:16:27;;;;;;;6.33;1.70;;;;;;;;;;4993922;28;20216;-75
2021/12/08 13:18:54;;;;;;;6.97;1.93;;;;;;;;;;5001644;28;20220;-81
2021/12/08 13:21:36;;;;;;;6.17;1.57;;;;;;;;;;5009876;28;20683;-81
2021/12/08 13:24:01;;;;;;;5.33;1.60;;;;;;;;;;4985316;28;20269;-80
2021/12/08 13:26:28;;;;;;;5.53;1.70;;;;;;;;;;5007151;28;20688;-81
2021/12/08 13:29:01;;;;;;;4.50;1.42;;;;;;;;;;5012038;28;20216;-80
2021/12/08 13:31:38;;;;;;;5.30;1.45;;;;;;;;;;4994305;28;20611;-81
2021/12/08 13:34:04;;;;;;;6.30;1.60;;;;;;;;;;5022500;28;20220;-60
2021/12/08 13:36:32;;;;;;;6.30;1.40;;;;;;;;;;5025007;28;20220;-60
2021/12/08 13:38:57;;;;;;;5.20;1.43;;;;;;;;;;5009581;28;20239;-60
2021/12/08 13:41:22;;;;;;;5.78;1.70;;;;;;;;;;5006831;28;20649;-61
2021/12/08 13:43:50;;;;;;;7.30;1.80;;;;;;;;;;5006179;28;20748;-60
2021/12/08 13:46:41;;;;;;;5.60;1.27;;;;;;;;;;4996169;28;20668;-60
2021/12/08 13:49:13;;;;;;;6.80;1.45;;;;;;;;;;5007633;28;20237;-60
2021/12/08 13:51:39;;;;;;;7.73;1.60;;;;;;;;;;5014853;28;20223;-60
2021/12/08 13:54:22;;;;;;;6.63;1.40;;;;;;;;;;5014109;28;20216;-60
2021/12/08 13:56:48;;;;;;;10.43;1.80;;;;;;;;;;5015084;28;20676;-60
2021/12/08 13:59:19;;;;;;;6.55;1.50;;;;;;;;;;5013320;28;20267;-60
2021/12/08 14:01:44;;;;;;;6.17;1.50;;;;;;;;;;5012599;28;20240;-60
2021/12/08 14:04:14;;;;;;;6.80;1.30;;;;;;;;;;5014522;28;20232;-60
2021/12/08 14:06:40;;;;;;;8.15;1.23;;;;;;;;;;5011120;28;20209;-60
2021/12/08 14:09:07;;;;;;;8.18;1.30;;;;;;;;;;5023563;28;20232;-61
2021/12/08 14:11:33;;;;;;;7.55;1.50;;;;;;;;;;5033502;28;20212;-60
2021/12/08 14:13:58;;;;;;;7.20;1.67;;;;;;;;;;5011310;28;20208;-60
2021/12/08 14:16:24;;;;;;;4.75;1.88;;;;;;;;;;5017476;28;20266;-60
2021/12/08 14:18:50;;;;;;;5.22;1.50;;;;;;;;;;5034339;28;20215;-66
2021/12/08 14:21:21;;;;;;;7.88;1.65;;;;;;;;;;5030050;28;20196;-66
2021/12/08 14:23:48;;;;;;;7.85;1.60;;;;;;;;;;5012533;28;20220;-66
2021/12/08 14:26:15;;;;;;;5.45;1.40;;;;;;;;;;5009551;28;20700;-66
2021/12/08 14:28:41;;;;;;;7.32;2.13;;;;;;;;;;5013506;28;20711;-66
2021/12/08 14:31:11;;;;;;;7.13;1.50;;;;;;;;;;4996233;28;20684;-65
2021/12/08 14:33:36;;;;;;;6.00;1.70;;;;;;;;;;5014310;28;20667;-66
2021/12/08 14:36:03;;;;;;;4.87;1.60;;;;;;;;;;5013117;28;20266;-65
2021/12/08 14:38:29;;;;;;;6.78;1.60;;;;;;;;;;5014440;28;20266;-66
2021/12/08 14:40:54;;;;;;;7.17;1.60;;;;;;;;;;5014108;28;20299;-66
2021/12/08 14:43:24;;;;;;;8.93;1.73;;;;;;;;;;5012870;28;20220;-66
2021/12/08 14:45:49;;;;;;;8.07;1.70;;;;;;;;;;5013935;28;20212;-66
2021/12/08 14:48:14;;;;;;;8.07;2.80;;;;;;;;;;5013122;28;20217;-66
2021/12/08 14:50:39;;;;;;;13.03;3.37;;;;;;;;;;5013060;28;20232;-66
2021/12/08 14:53:10;;;;;;;7.40;1.40;;;;;;;;;;5015755;28;20266;-65
2021/12/08 14:55:36;;;;;;;9.43;1.73;;;;;;;;;;5014593;28;20754;-66
2021/12/08 14:58:01;;;;;;;8.93;2.42;;;;;;;;;;4992111;28;20244;-65
2021/12/08 15:00:29;;;;;;;7.57;2.20;;;;;;;;;;4980904;28;20223;-66
2021/12/08 15:03:14;;;;;;;6.53;1.60;;;;;;;;;;4993520;28;20677;-68
2021/12/08 15:05:43;;;;;;;9.33;1.90;;;;;;;;;;4992230;28;20216;-66
2021/12/08 15:08:09;;;;;;;6.83;1.60;;;;;;;;;;4992432;28;20233;-65
2021/12/08 15:10:35;;;;;;;7.32;2.03;;;;;;;;;;4994353;28;20225;-66
2021/12/08 15:13:07;;;;;;;9.13;1.63;;;;;;;;;;4991867;28;20213;-66
2021/12/08 15:15:33;;;;;;;10.97;1.60;;;;;;;;;;5011650;28;20247;-66
2021/12/08 15:17:59;;;;;;;7.72;1.70;;;;;;;;;;5012703;28;20267;-66